• Join FlightAware (Why Join?)
  • Login
  • US Flag 
11:55PM EDT


 

Airport Tracker/Info


-or-


 

Live Flight TrackerFlight Track Log ✈ N607AH ✈ 26-Apr-2013 ✈ KBED - KBST

Flight Track Log - Related Links

Times and Time Zones

All times are in EDT time to prevent confusion due to time zone crossing. See the N607AH flight status page for this flight to view local times or setup timezone preferences in your user account.

Time Position Orientation Groundspeed Altitude Reporting Facility
EDT Latitude Longitude Course Direction KTS MPH feet Rate Location/Type
05:06PM 42.4667 -71.2667 36° Northeast 139 160 800  Level KA90
05:06PM 42.5000 -71.2333 36° Northeast 148 170 1,800 1,260 Climbing KA90
05:07PM 42.5333 -71.2000 36° Northeast 167 192 3,000 1,200 Climbing KA90
05:08PM 42.5667 -71.1667 36° Northeast 174 200 4,300 1,260 Climbing KA90
05:09PM 42.6000 -71.1167 48° Northeast 179 206 5,600 1,200 Climbing KA90
05:11PM 42.6461 -71.0458 48° Northeast 198 228 7,300 1,260 Climbing Boston Center
05:12PM 42.6808 -70.9856 52° Northeast 188 216 8,700 1,140 Climbing Boston Center
05:13PM 42.7156 -70.9367 46° Northeast 188 216 9,900 1,260 Climbing Boston Center
05:14PM 42.7669 -70.8817 38° Northeast 195 224 11,500 1,440 Climbing Boston Center
05:15PM 42.8142 -70.8297 39° Northeast 201 231 12,800 720 Climbing Boston Center
05:16PM 42.8572 -70.7803 40° Northeast 208 239 13,000 60 Climbing Boston Center
05:17PM 42.9167 -70.7164 38° Northeast 234 269 13,000  Level Boston Center
05:18PM 42.9681 -70.6611 38° Northeast 253 291 13,000 -60 Level Boston Center
05:19PM 43.0314 -70.5881 40° Northeast 258 297 12,900 -60 Descending Boston Center
05:20PM 43.0825 -70.5325 38° Northeast 258 297 12,900  Level Boston Center
05:21PM 43.1461 -70.4622 39° Northeast 258 297 13,000  Climbing Boston Center
05:22PM 43.1972 -70.4036 40° Northeast 258 297 12,900  Descending Boston Center
05:23PM 43.2606 -70.3361 38° Northeast 265 305 13,000  Climbing Boston Center
05:24PM 43.3136 -70.2742 40° Northeast 265 305 13,000  Level Boston Center
05:25PM 43.3747 -70.2064 39° Northeast 265 305 13,000  Level Boston Center
05:26PM 43.4278 -70.1472 39° Northeast 271 312 13,000 -60 Level Boston Center
05:27PM 43.5011 -70.0642 39° Northeast 271 312 12,900  Descending Boston Center
05:28PM 43.5561 -69.9992 41° Northeast 266 306 13,000  Climbing Boston Center
05:29PM 43.6131 -69.9367 38° Northeast 266 306 13,000 -300 Level Boston Center
05:30PM 43.6678 -69.8711 41° Northeast 266 306 12,500 -600 Descending Boston Center
05:31PM 43.7269 -69.8083 37° Northeast 266 306 11,800 -780 Descending Boston Center
05:32PM 43.7817 -69.7425 41° Northeast 266 306 11,000 -780 Descending Boston Center
05:33PM 43.8383 -69.6794 39° Northeast 261 300 10,300 -780 Descending Boston Center
05:34PM 43.8933 -69.6167 39° Northeast 261 300 9,500 -600 Descending Boston Center
05:35PM 43.9439 -69.5594 39° Northeast 261 300 9,200 -180 Descending Boston Center
05:36PM 44.0025 -69.4900 40° Northeast 250 288 9,200  Level Boston Center
05:37PM 44.0511 -69.4328 40° Northeast 250 288 9,200 -300 Level Boston Center
05:38PM 44.1100 -69.3692 38° Northeast 250 288 8,700 -120 Descending Boston Center
05:39PM 44.1644 -69.3028 41° Northeast 256 295 9,000 -1,200 Climbing Boston Center
05:40PM 44.2169 -69.2419 40° Northeast 251 289 6,400 -1,860 Descending Boston Center
05:41PM 44.2631 -69.1814 43° Northeast 241 277 5,300 -1,200 Descending Boston Center
05:42PM 44.3008 -69.1128 52° Northeast 228 262 4,100 -1,200 Descending Boston Center
05:43PM 44.3403 -69.0408 53° Northeast 223 257 3,000 -900 Descending Boston Center
05:44PM 44.3719 -68.9836 52° Northeast 207 238 2,400 -720 Descending Boston Center
05:45PM 44.3989 -68.9764 11° North 133 153 1,600 3,300 Descending Boston Center
05:46PM 44.4292 -68.9456 36° Northeast 133 153 9,000 3,660 Climbing Boston Center
05:47PM 44.4594 -68.9147 36° Northeast 133 153 9,000  Level Boston Center
05:49PM 44.4000 -69.0000 251° West  Level FlightAware Approximate
05:56PM 44.4094 -69.0118 251° West  Level Estimated
05:57PM 44.4094 -69.0118 251° West  Level Estimated
05:58PM 44.4094 -69.0118 251° West  Level Estimated
05:59PM 44.4094 -69.0118 251° West  Level Estimated
06:00PM 44.4094 -69.0118 251° West  Level Estimated